sensor_id;sensor_type;location;lat;lon;timestamp;P1;durP1;ratioP1;P2;durP2;ratioP2
42066;SDS011;27734;47.028;28.820;2023-05-10T00:00:13;16.00;;;7.53;;
42066;SDS011;27734;47.028;28.820;2023-05-10T00:03:03;15.73;;;7.53;;
42066;SDS011;27734;47.028;28.820;2023-05-10T00:05:32;16.30;;;7.77;;
42066;SDS011;27734;47.028;28.820;2023-05-10T00:08:00;16.77;;;7.70;;
42066;SDS011;27734;47.028;28.820;2023-05-10T00:10:28;16.10;;;7.80;;
42066;SDS011;27734;47.028;28.820;2023-05-10T00:12:57;16.33;;;7.37;;
42066;SDS011;27734;47.028;28.820;2023-05-10T00:15:26;16.07;;;7.43;;
42066;SDS011;27734;47.028;28.820;2023-05-10T00:17:54;19.03;;;8.23;;
42066;SDS011;27734;47.028;28.820;2023-05-10T00:20:23;16.10;;;7.63;;
42066;SDS011;27734;47.028;28.820;2023-05-10T00:22:51;18.53;;;7.93;;
42066;SDS011;27734;47.028;28.820;2023-05-10T00:25:20;19.47;;;8.43;;
42066;SDS011;27734;47.028;28.820;2023-05-10T00:27:48;18.47;;;7.80;;
42066;SDS011;27734;47.028;28.820;2023-05-10T00:30:17;19.25;;;8.45;;
42066;SDS011;27734;47.028;28.820;2023-05-10T00:32:45;17.77;;;8.27;;
42066;SDS011;27734;47.028;28.820;2023-05-10T00:35:14;16.53;;;7.77;;
42066;SDS011;27734;47.028;28.820;2023-05-10T00:37:43;17.73;;;8.00;;
42066;SDS011;27734;47.028;28.820;2023-05-10T00:40:12;20.67;;;8.73;;
42066;SDS011;27734;47.028;28.820;2023-05-10T00:42:42;18.00;;;7.83;;
42066;SDS011;27734;47.028;28.820;2023-05-10T00:45:11;18.17;;;8.10;;
42066;SDS011;27734;47.028;28.820;2023-05-10T00:47:39;19.90;;;8.45;;
42066;SDS011;27734;47.028;28.820;2023-05-10T00:50:09;19.13;;;8.37;;
42066;SDS011;27734;47.028;28.820;2023-05-10T00:52:38;20.93;;;9.13;;
42066;SDS011;27734;47.028;28.820;2023-05-10T00:55:08;18.40;;;7.77;;
42066;SDS011;27734;47.028;28.820;2023-05-10T00:57:38;17.20;;;8.20;;
42066;SDS011;27734;47.028;28.820;2023-05-10T01:00:08;19.20;;;8.07;;
42066;SDS011;27734;47.028;28.820;2023-05-10T01:02:39;17.10;;;7.57;;
42066;SDS011;27734;47.028;28.820;2023-05-10T01:05:09;17.07;;;8.20;;
42066;SDS011;27734;47.028;28.820;2023-05-10T01:07:38;17.60;;;7.50;;
42066;SDS011;27734;47.028;28.820;2023-05-10T01:10:07;18.83;;;8.37;;
42066;SDS011;27734;47.028;28.820;2023-05-10T01:12:38;18.80;;;8.10;;
42066;SDS011;27734;47.028;28.820;2023-05-10T01:15:08;17.90;;;8.60;;
42066;SDS011;27734;47.028;28.820;2023-05-10T01:17:39;19.20;;;7.53;;
42066;SDS011;27734;47.028;28.820;2023-05-10T01:20:10;17.33;;;7.63;;
42066;SDS011;27734;47.028;28.820;2023-05-10T01:22:53;18.73;;;7.93;;
42066;SDS011;27734;47.028;28.820;2023-05-10T01:32:00;18.47;;;6.73;;
42066;SDS011;27734;47.028;28.820;2023-05-10T01:34:46;15.53;;;6.93;;
42066;SDS011;27734;47.028;28.820;2023-05-10T01:37:21;16.83;;;6.87;;
42066;SDS011;27734;47.028;28.820;2023-05-10T01:39:58;17.30;;;6.77;;
42066;SDS011;27734;47.028;28.820;2023-05-10T01:42:34;14.77;;;6.80;;
42066;SDS011;27734;47.028;28.820;2023-05-10T01:45:10;17.97;;;6.60;;
42066;SDS011;27734;47.028;28.820;2023-05-10T01:47:43;17.60;;;6.83;;
42066;SDS011;27734;47.028;28.820;2023-05-10T01:50:17;14.43;;;7.10;;
42066;SDS011;27734;47.028;28.820;2023-05-10T01:52:51;16.62;;;7.17;;
42066;SDS011;27734;47.028;28.820;2023-05-10T01:55:23;18.93;;;7.10;;
42066;SDS011;27734;47.028;28.820;2023-05-10T01:57:58;17.37;;;7.00;;
42066;SDS011;27734;47.028;28.820;2023-05-10T02:00:31;17.37;;;7.50;;
42066;SDS011;27734;47.028;28.820;2023-05-10T02:03:01;16.13;;;7.00;;
42066;SDS011;27734;47.028;28.820;2023-05-10T02:05:33;15.23;;;6.70;;
42066;SDS011;27734;47.028;28.820;2023-05-10T02:08:06;19.43;;;8.03;;
42066;SDS011;27734;47.028;28.820;2023-05-10T02:10:37;16.43;;;7.20;;
42066;SDS011;27734;47.028;28.820;2023-05-10T02:13:08;16.50;;;7.00;;
42066;SDS011;27734;47.028;28.820;2023-05-10T02:15:38;18.97;;;7.40;;
42066;SDS011;27734;47.028;28.820;2023-05-10T02:18:08;16.67;;;7.17;;
42066;SDS011;27734;47.028;28.820;2023-05-10T02:20:39;18.90;;;9.00;;
42066;SDS011;27734;47.028;28.820;2023-05-10T02:23:09;24.90;;;11.67;;
42066;SDS011;27734;47.028;28.820;2023-05-10T02:25:38;25.43;;;13.43;;
42066;SDS011;27734;47.028;28.820;2023-05-10T02:28:08;24.43;;;12.93;;
42066;SDS011;27734;47.028;28.820;2023-05-10T02:30:39;21.93;;;13.27;;
42066;SDS011;27734;47.028;28.820;2023-05-10T02:33:08;22.93;;;11.97;;
42066;SDS011;27734;47.028;28.820;2023-05-10T02:35:38;24.27;;;12.20;;
42066;SDS011;27734;47.028;28.820;2023-05-10T02:38:09;19.83;;;10.20;;
42066;SDS011;27734;47.028;28.820;2023-05-10T02:40:40;19.80;;;9.27;;
42066;SDS011;27734;47.028;28.820;2023-05-10T02:43:12;19.03;;;8.40;;
42066;SDS011;27734;47.028;28.820;2023-05-10T02:45:41;16.93;;;8.20;;
42066;SDS011;27734;47.028;28.820;2023-05-10T02:48:14;20.70;;;8.30;;
42066;SDS011;27734;47.028;28.820;2023-05-10T02:50:44;19.70;;;8.80;;
42066;SDS011;27734;47.028;28.820;2023-05-10T02:53:21;17.17;;;8.47;;
42066;SDS011;27734;47.028;28.820;2023-05-10T02:55:58;21.00;;;8.37;;
42066;SDS011;27734;47.028;28.820;2023-05-10T03:00:59;19.50;;;8.00;;
42066;SDS011;27734;47.028;28.820;2023-05-10T03:03:27;18.93;;;8.23;;
42066;SDS011;27734;47.028;28.820;2023-05-10T03:05:56;22.47;;;8.73;;
42066;SDS011;27734;47.028;28.820;2023-05-10T03:08:25;17.43;;;8.07;;
42066;SDS011;27734;47.028;28.820;2023-05-10T03:11:01;19.93;;;8.73;;
42066;SDS011;27734;47.028;28.820;2023-05-10T03:13:47;18.40;;;7.50;;
42066;SDS011;27734;47.028;28.820;2023-05-10T03:16:24;17.73;;;7.97;;
42066;SDS011;27734;47.028;28.820;2023-05-10T03:19:02;17.50;;;8.43;;
42066;SDS011;27734;47.028;28.820;2023-05-10T03:21:37;19.13;;;7.87;;
42066;SDS011;27734;47.028;28.820;2023-05-10T03:24:10;16.37;;;7.33;;
42066;SDS011;27734;47.028;28.820;2023-05-10T03:26:42;17.17;;;7.80;;
42066;SDS011;27734;47.028;28.820;2023-05-10T03:29:15;16.07;;;7.57;;
42066;SDS011;27734;47.028;28.820;2023-05-10T03:31:46;20.93;;;8.20;;
42066;SDS011;27734;47.028;28.820;2023-05-10T03:34:14;17.47;;;7.80;;
42066;SDS011;27734;47.028;28.820;2023-05-10T03:36:44;18.10;;;7.77;;
42066;SDS011;27734;47.028;28.820;2023-05-10T03:39:12;16.93;;;8.10;;
42066;SDS011;27734;47.028;28.820;2023-05-10T03:41:41;17.97;;;7.97;;
42066;SDS011;27734;47.028;28.820;2023-05-10T03:44:10;16.73;;;7.27;;
42066;SDS011;27734;47.028;28.820;2023-05-10T03:46:38;14.90;;;7.60;;
42066;SDS011;27734;47.028;28.820;2023-05-10T03:49:07;16.23;;;7.43;;
42066;SDS011;27734;47.028;28.820;2023-05-10T03:51:37;18.13;;;7.20;;
42066;SDS011;27734;47.028;28.820;2023-05-10T03:54:05;15.40;;;7.43;;
42066;SDS011;27734;47.028;28.820;2023-05-10T03:56:34;16.27;;;7.53;;
42066;SDS011;27734;47.028;28.820;2023-05-10T03:59:02;16.33;;;7.53;;
42066;SDS011;27734;47.028;28.820;2023-05-10T04:01:34;15.73;;;7.27;;
42066;SDS011;27734;47.028;28.820;2023-05-10T04:04:03;13.20;;;6.47;;
42066;SDS011;27734;47.028;28.820;2023-05-10T04:06:32;16.83;;;7.40;;
42066;SDS011;27734;47.028;28.820;2023-05-10T04:09:00;17.70;;;7.13;;
42066;SDS011;27734;47.028;28.820;2023-05-10T04:11:31;14.67;;;6.30;;
42066;SDS011;27734;47.028;28.820;2023-05-10T04:14:01;14.90;;;6.73;;
42066;SDS011;27734;47.028;28.820;2023-05-10T04:16:30;14.63;;;6.40;;
42066;SDS011;27734;47.028;28.820;2023-05-10T04:18:58;14.73;;;6.60;;
42066;SDS011;27734;47.028;28.820;2023-05-10T04:21:27;12.53;;;5.73;;
42066;SDS011;27734;47.028;28.820;2023-05-10T04:23:56;16.15;;;6.10;;
42066;SDS011;27734;47.028;28.820;2023-05-10T04:26:24;13.57;;;6.47;;
42066;SDS011;27734;47.028;28.820;2023-05-10T04:28:53;13.33;;;6.20;;
42066;SDS011;27734;47.028;28.820;2023-05-10T04:31:21;14.20;;;6.00;;
42066;SDS011;27734;47.028;28.820;2023-05-10T04:33:50;15.33;;;5.90;;
42066;SDS011;27734;47.028;28.820;2023-05-10T04:36:19;12.37;;;5.70;;
42066;SDS011;27734;47.028;28.820;2023-05-10T04:38:47;13.43;;;5.97;;
42066;SDS011;27734;47.028;28.820;2023-05-10T04:41:16;14.10;;;6.03;;
42066;SDS011;27734;47.028;28.820;2023-05-10T04:43:44;14.27;;;5.97;;
42066;SDS011;27734;47.028;28.820;2023-05-10T04:46:13;13.20;;;5.27;;
42066;SDS011;27734;47.028;28.820;2023-05-10T04:48:41;12.23;;;5.40;;
42066;SDS011;27734;47.028;28.820;2023-05-10T04:51:10;13.90;;;5.53;;
42066;SDS011;27734;47.028;28.820;2023-05-10T04:53:39;16.23;;;6.33;;
42066;SDS011;27734;47.028;28.820;2023-05-10T04:56:08;16.20;;;5.97;;
42066;SDS011;27734;47.028;28.820;2023-05-10T04:58:37;15.97;;;6.17;;
42066;SDS011;27734;47.028;28.820;2023-05-10T05:01:06;15.83;;;6.00;;
42066;SDS011;27734;47.028;28.820;2023-05-10T05:03:36;13.80;;;6.05;;
42066;SDS011;27734;47.028;28.820;2023-05-10T05:06:05;14.57;;;5.50;;
42066;SDS011;27734;47.028;28.820;2023-05-10T05:08:34;12.43;;;5.10;;
42066;SDS011;27734;47.028;28.820;2023-05-10T05:11:04;12.23;;;5.60;;
42066;SDS011;27734;47.028;28.820;2023-05-10T05:13:33;11.07;;;5.07;;
42066;SDS011;27734;47.028;28.820;2023-05-10T05:16:01;13.97;;;5.90;;
42066;SDS011;27734;47.028;28.820;2023-05-10T05:18:30;12.73;;;5.07;;
42066;SDS011;27734;47.028;28.820;2023-05-10T05:20:59;11.37;;;5.10;;
42066;SDS011;27734;47.028;28.820;2023-05-10T05:23:30;12.63;;;5.50;;
42066;SDS011;27734;47.028;28.820;2023-05-10T05:25:59;7.83;;;4.70;;
42066;SDS011;27734;47.028;28.820;2023-05-10T05:28:28;9.20;;;4.90;;
42066;SDS011;27734;47.028;28.820;2023-05-10T05:30:59;17.80;;;5.03;;
42066;SDS011;27734;47.028;28.820;2023-05-10T05:33:28;12.63;;;5.30;;
42066;SDS011;27734;47.028;28.820;2023-05-10T05:35:56;11.63;;;5.20;;
42066;SDS011;27734;47.028;28.820;2023-05-10T05:38:28;12.67;;;5.27;;
42066;SDS011;27734;47.028;28.820;2023-05-10T05:40:57;12.93;;;5.50;;
42066;SDS011;27734;47.028;28.820;2023-05-10T05:43:26;11.73;;;4.80;;
42066;SDS011;27734;47.028;28.820;2023-05-10T05:45:55;8.67;;;4.50;;
42066;SDS011;27734;47.028;28.820;2023-05-10T05:48:24;11.05;;;5.20;;
42066;SDS011;27734;47.028;28.820;2023-05-10T05:50:54;15.13;;;4.87;;
42066;SDS011;27734;47.028;28.820;2023-05-10T05:53:23;14.20;;;4.80;;
42066;SDS011;27734;47.028;28.820;2023-05-10T05:55:53;11.30;;;4.90;;
42066;SDS011;27734;47.028;28.820;2023-05-10T05:58:22;9.03;;;4.97;;
42066;SDS011;27734;47.028;28.820;2023-05-10T06:00:53;9.23;;;4.70;;
42066;SDS011;27734;47.028;28.820;2023-05-10T06:03:22;8.97;;;4.50;;
42066;SDS011;27734;47.028;28.820;2023-05-10T06:05:54;11.33;;;4.33;;
42066;SDS011;27734;47.028;28.820;2023-05-10T06:08:24;7.90;;;4.10;;
42066;SDS011;27734;47.028;28.820;2023-05-10T06:10:58;9.43;;;4.40;;
42066;SDS011;27734;47.028;28.820;2023-05-10T06:13:28;6.63;;;4.13;;
42066;SDS011;27734;47.028;28.820;2023-05-10T06:15:59;12.20;;;4.40;;
42066;SDS011;27734;47.028;28.820;2023-05-10T06:18:28;9.07;;;4.43;;
42066;SDS011;27734;47.028;28.820;2023-05-10T06:21:04;9.20;;;4.47;;
42066;SDS011;27734;47.028;28.820;2023-05-10T06:23:43;12.10;;;4.17;;
42066;SDS011;27734;47.028;28.820;2023-05-10T06:26:12;13.70;;;4.37;;
42066;SDS011;27734;47.028;28.820;2023-05-10T06:28:40;9.20;;;4.40;;
42066;SDS011;27734;47.028;28.820;2023-05-10T06:31:09;11.40;;;4.30;;
42066;SDS011;27734;47.028;28.820;2023-05-10T06:33:39;9.33;;;4.40;;
42066;SDS011;27734;47.028;28.820;2023-05-10T06:36:07;10.43;;;4.00;;
42066;SDS011;27734;47.028;28.820;2023-05-10T06:38:39;10.77;;;4.37;;
42066;SDS011;27734;47.028;28.820;2023-05-10T06:41:10;7.17;;;3.47;;
42066;SDS011;27734;47.028;28.820;2023-05-10T06:43:39;7.47;;;3.80;;
42066;SDS011;27734;47.028;28.820;2023-05-10T06:46:12;5.92;;;3.30;;
42066;SDS011;27734;47.028;28.820;2023-05-10T06:48:41;8.23;;;3.63;;
42066;SDS011;27734;47.028;28.820;2023-05-10T06:51:11;6.03;;;3.40;;
42066;SDS011;27734;47.028;28.820;2023-05-10T06:53:43;6.20;;;3.20;;
42066;SDS011;27734;47.028;28.820;2023-05-10T06:56:11;4.73;;;3.10;;
42066;SDS011;27734;47.028;28.820;2023-05-10T06:58:40;7.80;;;3.40;;
42066;SDS011;27734;47.028;28.820;2023-05-10T07:01:09;6.43;;;3.10;;
42066;SDS011;27734;47.028;28.820;2023-05-10T07:03:38;6.63;;;3.10;;
42066;SDS011;27734;47.028;28.820;2023-05-10T07:06:08;7.87;;;3.30;;
42066;SDS011;27734;47.028;28.820;2023-05-10T07:08:39;7.07;;;4.00;;
42066;SDS011;27734;47.028;28.820;2023-05-10T07:11:07;7.57;;;3.23;;
42066;SDS011;27734;47.028;28.820;2023-05-10T07:13:37;5.40;;;3.17;;
42066;SDS011;27734;47.028;28.820;2023-05-10T07:18:40;7.57;;;3.33;;
42066;SDS011;27734;47.028;28.820;2023-05-10T07:21:09;5.57;;;2.90;;
42066;SDS011;27734;47.028;28.820;2023-05-10T07:23:38;6.60;;;3.33;;
42066;SDS011;27734;47.028;28.820;2023-05-10T07:26:08;5.97;;;3.23;;
42066;SDS011;27734;47.028;28.820;2023-05-10T07:28:39;6.13;;;2.93;;
42066;SDS011;27734;47.028;28.820;2023-05-10T07:31:07;9.30;;;3.30;;
42066;SDS011;27734;47.028;28.820;2023-05-10T07:33:36;4.73;;;3.00;;
42066;SDS011;27734;47.028;28.820;2023-05-10T07:36:07;4.93;;;2.70;;
42066;SDS011;27734;47.028;28.820;2023-05-10T07:38:38;7.03;;;3.00;;
42066;SDS011;27734;47.028;28.820;2023-05-10T07:41:07;7.43;;;3.23;;
42066;SDS011;27734;47.028;28.820;2023-05-10T07:43:38;5.37;;;2.67;;
42066;SDS011;27734;47.028;28.820;2023-05-10T07:46:07;4.80;;;3.17;;
42066;SDS011;27734;47.028;28.820;2023-05-10T07:48:37;9.03;;;3.23;;
42066;SDS011;27734;47.028;28.820;2023-05-10T07:51:05;6.63;;;2.80;;
42066;SDS011;27734;47.028;28.820;2023-05-10T07:53:36;4.27;;;2.97;;
42066;SDS011;27734;47.028;28.820;2023-05-10T08:01:17;5.50;;;2.83;;
42066;SDS011;27734;47.028;28.820;2023-05-10T08:03:47;5.27;;;2.73;;
42066;SDS011;27734;47.028;28.820;2023-05-10T08:06:28;5.13;;;2.90;;
42066;SDS011;27734;47.028;28.820;2023-05-10T08:08:56;6.97;;;3.20;;
42066;SDS011;27734;47.028;28.820;2023-05-10T08:11:28;5.07;;;2.70;;
42066;SDS011;27734;47.028;28.820;2023-05-10T08:13:58;9.23;;;3.00;;
42066;SDS011;27734;47.028;28.820;2023-05-10T08:16:27;4.23;;;2.60;;
42066;SDS011;27734;47.028;28.820;2023-05-10T08:18:56;4.60;;;2.80;;
42066;SDS011;27734;47.028;28.820;2023-05-10T08:21:25;4.67;;;2.80;;
42066;SDS011;27734;47.028;28.820;2023-05-10T08:23:57;5.53;;;3.00;;
42066;SDS011;27734;47.028;28.820;2023-05-10T08:26:33;5.53;;;2.90;;
42066;SDS011;27734;47.028;28.820;2023-05-10T08:29:07;6.87;;;2.90;;
42066;SDS011;27734;47.028;28.820;2023-05-10T08:31:36;4.70;;;2.90;;
42066;SDS011;27734;47.028;28.820;2023-05-10T08:34:08;8.93;;;3.20;;
42066;SDS011;27734;47.028;28.820;2023-05-10T08:36:37;4.70;;;3.20;;
42066;SDS011;27734;47.028;28.820;2023-05-10T08:39:06;5.33;;;3.10;;
42066;SDS011;27734;47.028;28.820;2023-05-10T08:41:35;3.43;;;2.60;;
42066;SDS011;27734;47.028;28.820;2023-05-10T08:44:06;5.40;;;2.70;;
42066;SDS011;27734;47.028;28.820;2023-05-10T08:46:37;3.73;;;2.87;;
42066;SDS011;27734;47.028;28.820;2023-05-10T08:49:10;5.07;;;3.10;;
42066;SDS011;27734;47.028;28.820;2023-05-10T08:51:46;11.00;;;3.50;;
42066;SDS011;27734;47.028;28.820;2023-05-10T08:54:18;4.97;;;2.70;;
42066;SDS011;27734;47.028;28.820;2023-05-10T08:56:55;4.53;;;3.40;;
42066;SDS011;27734;47.028;28.820;2023-05-10T08:59:24;5.27;;;3.10;;
42066;SDS011;27734;47.028;28.820;2023-05-10T09:01:58;6.10;;;3.07;;
42066;SDS011;27734;47.028;28.820;2023-05-10T09:04:28;5.73;;;3.00;;
42066;SDS011;27734;47.028;28.820;2023-05-10T09:06:58;3.57;;;2.70;;
42066;SDS011;27734;47.028;28.820;2023-05-10T09:09:27;3.67;;;2.90;;
42066;SDS011;27734;47.028;28.820;2023-05-10T09:11:56;6.13;;;3.10;;
42066;SDS011;27734;47.028;28.820;2023-05-10T09:14:25;6.30;;;2.90;;
42066;SDS011;27734;47.028;28.820;2023-05-10T09:16:54;6.67;;;3.20;;
42066;SDS011;27734;47.028;28.820;2023-05-10T09:19:28;4.97;;;2.90;;
42066;SDS011;27734;47.028;28.820;2023-05-10T09:22:00;7.00;;;3.20;;
42066;SDS011;27734;47.028;28.820;2023-05-10T09:24:32;4.57;;;2.90;;
42066;SDS011;27734;47.028;28.820;2023-05-10T09:27:06;8.35;;;3.70;;
42066;SDS011;27734;47.028;28.820;2023-05-10T09:29:43;6.43;;;3.27;;
42066;SDS011;27734;47.028;28.820;2023-05-10T09:32:14;7.83;;;3.20;;
42066;SDS011;27734;47.028;28.820;2023-05-10T09:34:43;7.43;;;3.30;;
42066;SDS011;27734;47.028;28.820;2023-05-10T09:37:15;5.83;;;2.90;;
42066;SDS011;27734;47.028;28.820;2023-05-10T09:39:47;5.27;;;3.10;;
42066;SDS011;27734;47.028;28.820;2023-05-10T09:42:22;4.97;;;2.73;;
42066;SDS011;27734;47.028;28.820;2023-05-10T09:44:54;6.83;;;3.30;;
42066;SDS011;27734;47.028;28.820;2023-05-10T09:47:28;4.73;;;2.60;;
42066;SDS011;27734;47.028;28.820;2023-05-10T09:49:58;4.33;;;2.80;;
42066;SDS011;27734;47.028;28.820;2023-05-10T09:52:30;5.70;;;3.00;;
42066;SDS011;27734;47.028;28.820;2023-05-10T09:55:13;7.57;;;3.17;;
42066;SDS011;27734;47.028;28.820;2023-05-10T09:57:43;8.73;;;3.27;;
42066;SDS011;27734;47.028;28.820;2023-05-10T10:00:17;5.17;;;2.80;;
42066;SDS011;27734;47.028;28.820;2023-05-10T10:02:55;7.07;;;3.10;;
42066;SDS011;27734;47.028;28.820;2023-05-10T10:05:34;6.17;;;3.17;;
42066;SDS011;27734;47.028;28.820;2023-05-10T10:08:09;9.77;;;3.40;;
42066;SDS011;27734;47.028;28.820;2023-05-10T10:10:39;7.80;;;3.30;;
42066;SDS011;27734;47.028;28.820;2023-05-10T10:13:08;7.45;;;3.05;;
42066;SDS011;27734;47.028;28.820;2023-05-10T10:15:38;5.67;;;3.20;;
42066;SDS011;27734;47.028;28.820;2023-05-10T10:18:07;7.90;;;3.20;;
42066;SDS011;27734;47.028;28.820;2023-05-10T10:20:39;5.47;;;3.07;;
42066;SDS011;27734;47.028;28.820;2023-05-10T10:23:08;4.77;;;2.90;;
42066;SDS011;27734;47.028;28.820;2023-05-10T10:25:40;3.57;;;2.80;;
42066;SDS011;27734;47.028;28.820;2023-05-10T10:28:14;4.90;;;2.90;;
42066;SDS011;27734;47.028;28.820;2023-05-10T10:30:53;5.47;;;3.20;;
42066;SDS011;27734;47.028;28.820;2023-05-10T10:33:47;4.40;;;2.90;;
42066;SDS011;27734;47.028;28.820;2023-05-10T10:36:24;4.57;;;2.83;;
42066;SDS011;27734;47.028;28.820;2023-05-10T10:38:57;12.13;;;3.77;;
42066;SDS011;27734;47.028;28.820;2023-05-10T10:41:28;8.53;;;3.23;;
42066;SDS011;27734;47.028;28.820;2023-05-10T10:47:10;5.53;;;2.90;;
42066;SDS011;27734;47.028;28.820;2023-05-10T10:50:04;6.60;;;2.80;;
42066;SDS011;27734;47.028;28.820;2023-05-10T10:52:38;10.30;;;3.43;;
42066;SDS011;27734;47.028;28.820;2023-05-10T10:55:15;7.70;;;3.58;;
42066;SDS011;27734;47.028;28.820;2023-05-10T10:58:02;5.50;;;2.93;;
42066;SDS011;27734;47.028;28.820;2023-05-10T11:00:32;6.03;;;3.43;;
42066;SDS011;27734;47.028;28.820;2023-05-10T11:03:03;5.70;;;3.03;;
42066;SDS011;27734;47.028;28.820;2023-05-10T11:05:37;7.87;;;3.40;;
42066;SDS011;27734;47.028;28.820;2023-05-10T11:10:38;7.33;;;3.27;;
42066;SDS011;27734;47.028;28.820;2023-05-10T11:13:33;5.57;;;2.90;;
42066;SDS011;27734;47.028;28.820;2023-05-10T11:16:12;4.93;;;2.93;;
42066;SDS011;27734;47.028;28.820;2023-05-10T11:19:01;6.93;;;3.10;;
42066;SDS011;27734;47.028;28.820;2023-05-10T11:21:31;9.23;;;3.87;;
42066;SDS011;27734;47.028;28.820;2023-05-10T11:24:37;4.97;;;3.03;;
42066;SDS011;27734;47.028;28.820;2023-05-10T11:27:05;6.57;;;2.93;;
42066;SDS011;27734;47.028;28.820;2023-05-10T11:29:34;6.07;;;3.10;;
42066;SDS011;27734;47.028;28.820;2023-05-10T11:32:04;4.67;;;2.90;;
42066;SDS011;27734;47.028;28.820;2023-05-10T11:34:35;8.90;;;3.20;;
42066;SDS011;27734;47.028;28.820;2023-05-10T11:37:03;7.05;;;3.35;;
42066;SDS011;27734;47.028;28.820;2023-05-10T11:39:32;6.07;;;3.00;;
42066;SDS011;27734;47.028;28.820;2023-05-10T11:42:00;5.30;;;3.30;;
42066;SDS011;27734;47.028;28.820;2023-05-10T11:44:29;6.80;;;3.30;;
42066;SDS011;27734;47.028;28.820;2023-05-10T11:47:00;7.97;;;3.27;;
42066;SDS011;27734;47.028;28.820;2023-05-10T11:49:30;4.40;;;3.00;;
42066;SDS011;27734;47.028;28.820;2023-05-10T11:52:05;8.57;;;3.40;;
42066;SDS011;27734;47.028;28.820;2023-05-10T11:54:51;8.05;;;3.30;;
42066;SDS011;27734;47.028;28.820;2023-05-10T11:57:26;7.27;;;3.60;;
42066;SDS011;27734;47.028;28.820;2023-05-10T11:59:59;7.27;;;3.40;;
42066;SDS011;27734;47.028;28.820;2023-05-10T12:02:34;8.47;;;4.00;;
42066;SDS011;27734;47.028;28.820;2023-05-10T12:05:04;6.10;;;3.40;;
42066;SDS011;27734;47.028;28.820;2023-05-10T12:07:34;7.37;;;3.60;;
42066;SDS011;27734;47.028;28.820;2023-05-10T12:10:07;5.27;;;3.73;;
42066;SDS011;27734;47.028;28.820;2023-05-10T12:12:41;7.70;;;3.80;;
42066;SDS011;27734;47.028;28.820;2023-05-10T12:15:17;6.63;;;3.53;;
42066;SDS011;27734;47.028;28.820;2023-05-10T12:17:48;9.53;;;3.87;;
42066;SDS011;27734;47.028;28.820;2023-05-10T12:20:20;7.77;;;3.60;;
42066;SDS011;27734;47.028;28.820;2023-05-10T12:22:53;13.07;;;4.07;;
42066;SDS011;27734;47.028;28.820;2023-05-10T12:25:23;7.70;;;3.70;;
42066;SDS011;27734;47.028;28.820;2023-05-10T12:30:52;6.97;;;3.63;;
42066;SDS011;27734;47.028;28.820;2023-05-10T12:33:28;7.83;;;3.30;;
42066;SDS011;27734;47.028;28.820;2023-05-10T12:36:15;7.60;;;3.17;;
42066;SDS011;27734;47.028;28.820;2023-05-10T12:39:02;6.17;;;3.30;;
42066;SDS011;27734;47.028;28.820;2023-05-10T12:41:32;5.90;;;3.10;;
42066;SDS011;27734;47.028;28.820;2023-05-10T12:44:00;6.57;;;3.27;;
42066;SDS011;27734;47.028;28.820;2023-05-10T12:49:18;6.03;;;2.97;;
42066;SDS011;27734;47.028;28.820;2023-05-10T12:51:47;5.20;;;2.83;;
42066;SDS011;27734;47.028;28.820;2023-05-10T12:54:16;4.50;;;2.93;;
42066;SDS011;27734;47.028;28.820;2023-05-10T12:56:45;5.27;;;3.20;;
42066;SDS011;27734;47.028;28.820;2023-05-10T12:59:20;5.47;;;3.40;;
42066;SDS011;27734;47.028;28.820;2023-05-10T13:01:51;4.90;;;3.03;;
42066;SDS011;27734;47.028;28.820;2023-05-10T13:04:19;5.00;;;3.03;;
42066;SDS011;27734;47.028;28.820;2023-05-10T13:06:48;5.27;;;3.10;;
42066;SDS011;27734;47.028;28.820;2023-05-10T13:09:17;5.73;;;3.00;;
42066;SDS011;27734;47.028;28.820;2023-05-10T13:11:47;8.43;;;2.97;;
42066;SDS011;27734;47.028;28.820;2023-05-10T13:14:23;10.10;;;3.23;;
42066;SDS011;27734;47.028;28.820;2023-05-10T13:16:52;4.20;;;3.13;;
42066;SDS011;27734;47.028;28.820;2023-05-10T13:19:20;4.50;;;2.77;;
42066;SDS011;27734;47.028;28.820;2023-05-10T13:21:49;4.20;;;2.73;;
42066;SDS011;27734;47.028;28.820;2023-05-10T13:24:19;3.45;;;2.60;;
42066;SDS011;27734;47.028;28.820;2023-05-10T13:26:48;4.87;;;2.90;;
42066;SDS011;27734;47.028;28.820;2023-05-10T13:29:17;5.50;;;2.50;;
42066;SDS011;27734;47.028;28.820;2023-05-10T13:31:50;2.80;;;2.40;;
42066;SDS011;27734;47.028;28.820;2023-05-10T13:34:20;5.20;;;2.70;;
42066;SDS011;27734;47.028;28.820;2023-05-10T13:36:48;5.53;;;2.67;;
42066;SDS011;27734;47.028;28.820;2023-05-10T13:39:18;4.97;;;2.80;;
42066;SDS011;27734;47.028;28.820;2023-05-10T13:41:47;7.93;;;2.80;;
42066;SDS011;27734;47.028;28.820;2023-05-10T13:44:19;6.43;;;2.80;;
42066;SDS011;27734;47.028;28.820;2023-05-10T13:46:48;4.60;;;2.87;;
42066;SDS011;27734;47.028;28.820;2023-05-10T13:49:17;6.80;;;2.50;;
42066;SDS011;27734;47.028;28.820;2023-05-10T13:51:46;4.07;;;2.40;;
42066;SDS011;27734;47.028;28.820;2023-05-10T13:54:14;3.50;;;2.47;;
42066;SDS011;27734;47.028;28.820;2023-05-10T13:56:46;5.17;;;2.90;;
42066;SDS011;27734;47.028;28.820;2023-05-10T13:59:22;4.87;;;2.80;;
42066;SDS011;27734;47.028;28.820;2023-05-10T14:01:53;2.60;;;2.40;;
42066;SDS011;27734;47.028;28.820;2023-05-10T14:04:22;3.97;;;2.77;;
42066;SDS011;27734;47.028;28.820;2023-05-10T14:06:51;3.97;;;2.67;;
42066;SDS011;27734;47.028;28.820;2023-05-10T14:09:20;7.23;;;2.80;;
42066;SDS011;27734;47.028;28.820;2023-05-10T14:11:49;7.53;;;3.03;;
42066;SDS011;27734;47.028;28.820;2023-05-10T14:14:19;7.00;;;2.60;;
42066;SDS011;27734;47.028;28.820;2023-05-10T14:16:48;4.30;;;2.40;;
42066;SDS011;27734;47.028;28.820;2023-05-10T14:19:17;5.40;;;2.60;;
42066;SDS011;27734;47.028;28.820;2023-05-10T14:21:45;7.13;;;3.40;;
42066;SDS011;27734;47.028;28.820;2023-05-10T14:24:16;8.47;;;2.70;;
42066;SDS011;27734;47.028;28.820;2023-05-10T14:26:45;5.03;;;2.47;;
42066;SDS011;27734;47.028;28.820;2023-05-10T14:29:14;6.83;;;2.63;;
42066;SDS011;27734;47.028;28.820;2023-05-10T14:31:42;3.05;;;2.40;;
42066;SDS011;27734;47.028;28.820;2023-05-10T14:34:11;2.97;;;2.43;;
42066;SDS011;27734;47.028;28.820;2023-05-10T14:36:40;3.27;;;2.60;;
42066;SDS011;27734;47.028;28.820;2023-05-10T14:39:08;4.83;;;2.83;;
42066;SDS011;27734;47.028;28.820;2023-05-10T14:41:42;6.30;;;2.63;;
42066;SDS011;27734;47.028;28.820;2023-05-10T14:44:11;6.07;;;2.70;;
42066;SDS011;27734;47.028;28.820;2023-05-10T14:46:39;3.80;;;2.80;;
42066;SDS011;27734;47.028;28.820;2023-05-10T14:49:08;6.00;;;2.73;;
42066;SDS011;27734;47.028;28.820;2023-05-10T14:51:37;5.63;;;2.63;;
42066;SDS011;27734;47.028;28.820;2023-05-10T14:54:05;3.40;;;2.55;;
42066;SDS011;27734;47.028;28.820;2023-05-10T14:56:34;3.53;;;2.37;;
42066;SDS011;27734;47.028;28.820;2023-05-10T14:59:04;2.90;;;2.50;;
42066;SDS011;27734;47.028;28.820;2023-05-10T15:01:33;2.40;;;2.20;;
42066;SDS011;27734;47.028;28.820;2023-05-10T15:04:04;4.33;;;2.90;;
42066;SDS011;27734;47.028;28.820;2023-05-10T15:06:33;3.10;;;2.40;;
42066;SDS011;27734;47.028;28.820;2023-05-10T15:09:02;3.55;;;2.20;;
42066;SDS011;27734;47.028;28.820;2023-05-10T15:11:31;5.00;;;2.53;;
42066;SDS011;27734;47.028;28.820;2023-05-10T15:14:00;7.47;;;2.60;;
42066;SDS011;27734;47.028;28.820;2023-05-10T15:16:29;6.83;;;2.73;;
42066;SDS011;27734;47.028;28.820;2023-05-10T15:18:57;4.20;;;2.60;;